createdAt,value
2018-03-21T00:04:55.477Z,0.66
2018-03-21T00:10:46.115Z,1
2018-03-21T00:16:36.660Z,1.04
2018-03-21T00:22:27.280Z,1.18
2018-03-21T00:28:17.961Z,1.12
2018-03-21T00:34:08.500Z,0.9
2018-03-21T00:39:59.118Z,0.69
2018-03-21T00:45:49.747Z,1
2018-03-21T00:51:40.357Z,0.93
2018-03-21T00:57:30.934Z,0.69
2018-03-21T01:03:21.528Z,0.67
2018-03-21T01:09:12.154Z,0.76
2018-03-21T01:15:02.827Z,0.87
2018-03-21T01:20:53.376Z,1.45
2018-03-21T01:26:43.919Z,1.67
2018-03-21T01:32:34.577Z,2.36
2018-03-21T01:38:25.168Z,2.17
2018-03-21T01:44:15.741Z,5
2018-03-21T01:50:06.368Z,3.99
2018-03-21T01:55:56.942Z,3.52
2018-03-21T02:01:47.587Z,4.7
2018-03-21T02:07:38.168Z,4.82
2018-03-21T02:13:28.801Z,5.62
2018-03-21T02:19:19.403Z,3.38
2018-03-21T02:25:10.093Z,5.56
2018-03-21T02:31:00.665Z,6.03
2018-03-21T02:36:51.278Z,3.43
2018-03-21T02:42:41.867Z,5.18
2018-03-21T02:48:32.472Z,6.24
2018-03-21T02:54:23.034Z,5.7
2018-03-21T03:00:13.663Z,7.48
2018-03-21T03:06:04.321Z,8.18
2018-03-21T03:11:54.900Z,8.48
2018-03-21T03:17:45.497Z,5.8
2018-03-21T03:23:36.109Z,6.95
2018-03-21T03:29:26.733Z,12.32
2018-03-21T03:35:17.372Z,10.09
2018-03-21T03:41:07.976Z,7.64
2018-03-21T03:46:58.538Z,7.31
2018-03-21T03:52:49.172Z,6.75
2018-03-21T03:58:39.812Z,12.66
2018-03-21T04:04:30.425Z,9.36
2018-03-21T04:10:21.075Z,10.72
2018-03-21T04:16:11.589Z,9.28
2018-03-21T04:22:02.253Z,9.46
2018-03-21T04:27:52.802Z,9.45
2018-03-21T04:33:43.398Z,11.15
2018-03-21T04:39:34.059Z,11.63
2018-03-21T04:45:24.626Z,12.05
2018-03-21T04:51:15.311Z,13.76
2018-03-21T04:57:05.852Z,12.62
2018-03-21T05:02:56.491Z,16.27
2018-03-21T05:08:47.117Z,9.69
2018-03-21T05:14:37.650Z,8.45
2018-03-21T05:20:28.323Z,10.44
2018-03-21T05:26:18.919Z,7.21
2018-03-21T05:32:09.478Z,8.75
2018-03-21T05:38:00.036Z,6.49
2018-03-21T05:43:50.673Z,7.31
2018-03-21T05:49:41.326Z,6.85
2018-03-21T05:55:31.898Z,5.46
2018-03-21T06:01:22.572Z,6.65
2018-03-21T06:07:13.069Z,6.97
2018-03-21T06:13:03.685Z,4.56
2018-03-21T06:18:54.344Z,6.58
2018-03-21T06:24:44.944Z,8.56
2018-03-21T06:30:35.522Z,5.87
2018-03-21T06:36:26.163Z,9.59
2018-03-21T06:42:16.783Z,9.6
2018-03-21T06:48:07.414Z,8.21
2018-03-21T06:53:58.024Z,5.48
2018-03-21T06:59:48.496Z,11.66
2018-03-21T07:05:39.095Z,8.91
2018-03-21T07:11:29.789Z,9.42
2018-03-21T07:17:20.393Z,10.34
2018-03-21T07:23:11.065Z,11
2018-03-21T07:29:01.591Z,9.75
2018-03-21T07:34:52.190Z,11.76
2018-03-21T07:40:42.847Z,9.92
2018-03-21T07:46:33.436Z,10.82
2018-03-21T07:52:23.982Z,9.11
2018-03-21T07:58:14.631Z,8.57
2018-03-21T08:04:05.228Z,8.53
2018-03-21T08:09:55.869Z,5.58
2018-03-21T08:15:46.557Z,8.18
2018-03-21T08:21:37.120Z,11.1
2018-03-21T08:27:27.691Z,8.16
2018-03-21T08:33:18.314Z,14.79
2018-03-21T08:39:08.932Z,2.83
2018-03-21T08:44:59.583Z,6.78
2018-03-21T08:50:50.235Z,6.98
2018-03-21T08:56:40.792Z,4.71
2018-03-21T09:02:31.344Z,3.75
2018-03-21T09:08:22.013Z,5.59
2018-03-21T09:14:12.641Z,5.16
2018-03-21T09:20:03.216Z,4.15
2018-03-21T09:25:53.947Z,7.43
2018-03-21T09:31:44.451Z,9.89
2018-03-21T09:37:35.135Z,5.64
2018-03-21T09:43:25.754Z,5.96
2018-03-21T09:49:16.401Z,7.09
2018-03-21T09:55:07.040Z,5.63
2018-03-21T10:00:57.673Z,7.19
2018-03-21T10:06:48.262Z,4.81
2018-03-21T10:12:38.881Z,7.47
2018-03-21T10:18:29.492Z,5.53
2018-03-21T10:24:20.073Z,5.34
2018-03-21T10:30:10.732Z,4.91
2018-03-21T10:36:01.451Z,7.94
2018-03-21T10:41:51.954Z,4.82
2018-03-21T10:47:42.622Z,8.32
2018-03-21T10:53:33.237Z,5.32
2018-03-21T10:59:23.878Z,6.18
2018-03-21T11:05:14.491Z,6.15
2018-03-21T11:11:05.044Z,7.59
2018-03-21T11:16:55.688Z,7.71
2018-03-21T11:22:46.311Z,7.41
2018-03-21T11:28:36.956Z,7.95
2018-03-21T11:34:27.556Z,8.75
2018-03-21T11:40:18.185Z,10.62
2018-03-21T11:46:08.831Z,6.63
2018-03-21T11:51:59.478Z,16.7
2018-03-21T11:57:50.062Z,7.22
2018-03-21T12:03:40.777Z,9.19
2018-03-21T12:09:31.393Z,9.96
2018-03-21T12:15:22.034Z,8.58
2018-03-21T12:21:12.675Z,6.61
2018-03-21T12:27:03.276Z,8.05
2018-03-21T12:32:53.953Z,8.47
2018-03-21T12:38:44.505Z,8.55
2018-03-21T12:44:35.203Z,9.4
2018-03-21T12:50:25.786Z,10.13
2018-03-21T12:56:16.475Z,8.2
2018-03-21T13:02:06.985Z,13.41
2018-03-21T13:07:57.631Z,8.89
2018-03-21T13:13:48.302Z,7.19
2018-03-21T13:19:38.952Z,9.58
2018-03-21T13:25:29.556Z,11.32
2018-03-21T13:31:20.252Z,9.25
2018-03-21T13:37:10.953Z,12.02
2018-03-21T13:43:01.685Z,11.24
2018-03-21T13:48:52.354Z,13.05
2018-03-21T13:54:43.097Z,9.68
2018-03-21T14:00:33.828Z,10.07
2018-03-21T14:06:24.588Z,13.5
2018-03-21T14:12:15.295Z,9.06
2018-03-21T14:18:06.065Z,14.17
2018-03-21T14:23:56.772Z,14.1
2018-03-21T14:29:47.496Z,13.22
2018-03-21T14:35:38.222Z,11.71
2018-03-21T14:41:29.005Z,13.56
2018-03-21T14:47:19.687Z,13.36
2018-03-21T14:53:10.384Z,10.9
2018-03-21T14:59:01.086Z,15.66
2018-03-21T15:04:51.777Z,14.16
2018-03-21T15:10:42.482Z,9.79
2018-03-21T15:16:33.182Z,12
2018-03-21T15:22:23.892Z,10.06
2018-03-21T15:28:14.594Z,9.89
2018-03-21T15:34:05.272Z,8.46
2018-03-21T15:39:55.960Z,12.09
2018-03-21T15:45:46.651Z,10.07
2018-03-21T15:51:37.373Z,9.11
2018-03-21T15:57:27.983Z,11.91
2018-03-21T16:03:18.645Z,10.07
2018-03-21T16:09:09.322Z,13.09
2018-03-21T16:15:00.056Z,9.88
2018-03-21T16:20:50.656Z,9.61
2018-03-21T16:26:41.342Z,8.91
2018-03-21T16:32:31.965Z,8.61
2018-03-21T16:38:22.649Z,9.9
2018-03-21T16:44:13.209Z,12.25
2018-03-21T16:50:03.897Z,11.54
2018-03-21T16:55:54.524Z,14.23
2018-03-21T17:01:45.119Z,11.02
2018-03-21T17:07:35.757Z,12.16
2018-03-21T17:13:26.436Z,8.34
2018-03-21T17:19:17.047Z,8.98
2018-03-21T17:25:07.639Z,10.13
2018-03-21T17:30:58.251Z,8.81
2018-03-21T17:36:48.929Z,10.3
2018-03-21T17:42:39.555Z,9.93
2018-03-21T17:48:30.121Z,10.22
2018-03-21T17:54:20.789Z,7.58
2018-03-21T18:00:11.458Z,14.93
2018-03-21T18:06:02.029Z,11.82
2018-03-21T18:11:52.624Z,12.55
2018-03-21T18:17:43.203Z,8.84
2018-03-21T18:23:33.827Z,14.26
2018-03-21T18:29:24.543Z,8.87
2018-03-21T18:35:15.049Z,9.09
2018-03-21T18:41:05.698Z,13.12
2018-03-21T18:46:56.276Z,11.33
2018-03-21T18:52:46.890Z,11.93
2018-03-21T18:58:37.469Z,12.94
2018-03-21T19:04:28.119Z,15.19
2018-03-21T19:10:18.758Z,10.25
2018-03-21T19:16:09.345Z,10.24
2018-03-21T19:21:59.952Z,12.02
2018-03-21T19:27:50.519Z,14.73
2018-03-21T19:33:41.220Z,8.63
2018-03-21T19:39:31.766Z,11.57
2018-03-21T19:45:22.343Z,12.3
2018-03-21T19:51:12.979Z,10.91
2018-03-21T19:57:03.577Z,11.06
2018-03-21T20:02:54.175Z,11.1
2018-03-21T20:08:44.759Z,12.84
2018-03-21T20:14:35.352Z,16.72
2018-03-21T20:20:25.963Z,14.14
2018-03-21T20:26:16.600Z,12.41
2018-03-21T20:32:07.204Z,9
2018-03-21T20:37:57.834Z,10.45
2018-03-21T20:43:48.409Z,13.15
2018-03-21T20:49:39.023Z,9.71
2018-03-21T20:55:29.586Z,14
2018-03-21T21:01:20.192Z,9.93
2018-03-21T21:07:10.868Z,10.65
2018-03-21T21:13:01.440Z,12.01
2018-03-21T21:18:52.036Z,8.52
2018-03-21T21:24:42.647Z,10.48
2018-03-21T21:30:33.227Z,9.4
2018-03-21T21:36:23.836Z,10.23
2018-03-21T21:42:14.502Z,8.95
2018-03-21T21:48:05.065Z,8.25
2018-03-21T21:53:55.698Z,10.16
2018-03-21T21:59:46.259Z,12.57
2018-03-21T22:05:36.859Z,11.16
2018-03-21T22:11:27.535Z,11.46
2018-03-21T22:17:18.143Z,9.63
2018-03-21T22:23:08.683Z,13.06
2018-03-21T22:28:59.305Z,11.4
2018-03-21T22:34:49.891Z,14.29
2018-03-21T22:40:40.501Z,15.66
2018-03-21T22:46:31.086Z,11.42
2018-03-21T22:52:21.700Z,12.94
2018-03-21T22:58:12.275Z,9.21
2018-03-21T23:04:02.924Z,13.45
2018-03-21T23:09:53.511Z,13.2
2018-03-21T23:15:44.125Z,10.52
2018-03-21T23:21:34.865Z,12.27
2018-03-21T23:27:25.307Z,10.63
2018-03-21T23:33:15.941Z,10.22
2018-03-21T23:39:06.556Z,12.75
2018-03-21T23:44:57.158Z,17.06
2018-03-21T23:50:47.751Z,15.09
2018-03-21T23:56:38.314Z,11.91
